Allenville, Illinois
Current Conditions -  °F | °C
As of 5:53 AM on Thursday 29 Jan 2015 (Local Time) from KMTO Reporting Station
Few Clouds Few Clouds  
Wind Chill:   Ceiling: Unl
Heat Index:   Visibility: 10mi
Dew Point:   Wind: 7mph
Humidity: 70%   Direction: 210°SSW
Pressure: 29.76"   Gusts: NA
Location:  39.5872°N, 88.5835°W
Report Text: KMTO 291153Z AUTO 21006KT 10SM FEW120 06/01 A2976 RMK AO2 SLP082 60000 T00560006 10056 20028 55001
Loading
Personal Weather Stations






























Interactive Weather Map New forecast layout! Learn more

10-Day Weather Forecast

Advertisements
Track Severe Weather on mobile